AirNav   Pilot Hours Calculator
 
 726 users online  

CA97 Christy Airstrip
Santa Barbara, California, USA

GOING TO SANTA BARBARA?


FAA INFORMATION EFFECTIVE 07 OCTOBER 2021

Location

FAA Identifier: CA97
Lat/Long: 34-01-11.0140N 119-51-10.4640W
34-01.183567N 119-51.174400W
34.0197261,-119.8529067
(estimated)
Elevation: 250 ft. / 76 m (estimated)
Variation: 14E (1985)
From city: 26 miles SW of SANTA BARBARA, CA
Time zone: UTC -7 (UTC -8 during Standard Time)
Zip code: 93105

Airport Operations

Airport use: Private use. Permission required prior to landing
Activation date: 10/1975
Control tower: no
ARTCC: LOS ANGELES CENTER
FSS: HAWTHORNE FLIGHT SERVICE STATION
Attendance: UNATNDD
Wind indicator: yes
Segmented circle: no

Nearby radio navigation aids

VOR radial/distance  VOR name  Freq  Var
RZSr174/29.7SAN MARCUS VORTAC114.9014E
GVOr143/32.9GAVIOTA VORTAC113.8016E
CMAr238/39.4CAMARILLO VOR/DME115.8015E

Airport Services

Airframe service: NONE
Powerplant service: NONE

Runway Information

Runway 9/27

Dimensions: 2507 x 50 ft. / 764 x 15 m
Surface: turf
RUNWAY 9  RUNWAY 27
Traffic pattern: leftright
Obstructions: hills, 2500 ft. from runwaynone

Airport Ownership and Management from official FAA records

Ownership: Privately-owned
Owner: THE NATURE CONSERVACY
532 E MAIN ST., SUITE 200
VENTURA, CA 93001
Phone (805) 642-0345
OFFICE PHONE
Manager: EAMON O'BYRNE
532 E MAIN ST., SUITE 200
VENTURA, CA 93001
Phone (805) 642-0345

Additional Remarks

PVT LNDG STRIP - TRESPASSERS PROSECUTED.
OWNER DOES NOT DESIRE ARPT TO BE CHARTED.
FOR CD CTC LOS ANGELES ARTCC AT 661-575-2079.

Instrument Procedures

There are no published instrument procedures at CA97.

Some nearby airports with instrument procedures:

KSBA - Santa Barbara Municipal Airport (24 nm N)
KOXR - Oxnard Airport (34 nm E)
KIZA - Santa Ynez Airport (37 nm N)
KNTD - Point Mugu Naval Air Station (Naval Base Ventura County) (37 nm E)
KCMA - Camarillo Airport (39 nm E)
 
Loc | Ops | Rwys | IFR | FBO | Links
Com | Nav | Svcs | Stats | Notes
Area around CA97 (Christy Airstrip)
 
Road maps at: MapQuest Bing Google
 
Aerial photo
No photo
 
Sectional chart

 
Airport distance calculator
Flying to Christy Airstrip? Find the distance to fly.

From to CA97

Sunrise and sunset
Times for 27-Oct-2021
 Local
(UTC-7)
 Zulu
(UTC)
Morning civil twilight06:5013:50
Sunrise07:1614:16
Sunset18:1101:11
Evening civil twilight18:3701:37

Current date and time
Zulu (UTC)  28-Oct-2021 04:30:34
Local (UTC-7)  27-Oct-2021 21:30:34
 
METAR
KSBA 
25nm N 
280353Z 26003KT 10SM CLR 16/10 A3006 RMK AO2 SLP179 T01610100 $
KOXR 
34nm E 
280351Z AUTO 00000KT 10SM CLR 17/13 A3007 RMK AO2 SLP180 T01670133
KIZA 
36nm N 
280415Z AUTO RMK AO2 TSNO PWINO
KNTD 
37nm E 
280352Z 27004KT 10SM CLR 16/09 A3007 RMK AO2 SLP183 T01560094 CHINO N VISNO N $
KCMA 
41nm E 
280355Z 04004KT 10SM CLR 18/11 A3006 RMK AO2 SLP188 T01780106 $
KLPC 
49nm NW 
280356Z AUTO VRB06KT 10SM CLR 22/11 A3012 RMK AO2 SLP201 T02170106
TAF
KSBA 
25nm N 
271731Z 2718/2818 17006KT P6SM SKC FM272000 22008KT P6SM SKC FM280200 VRB03KT P6SM SKC FM281400 00000KT P6SM SKC
NOTAMs
Click for the latest NOTAMs
NOTAMs are issued by the DoD/FAA and will open in a separate window not controlled by AirNav.

 

 
 

Would you like to see your business listed on this page?

 If your business provides an interesting product or service to pilots, flight crews, aircraft, or users of the Christy Airstrip, you should consider listing it here.  To start the listing process, click on the button below
 
Add a business
 

Other Pages about Christy Airstrip

Update a link
 
Copyright © AirNav, LLC. All rights reserved. Privacy Policy  Contact